createdAt,value
2022-10-01T00:00:46.871Z,1.04
2022-10-01T00:01:47.036Z,1.04
2022-10-01T00:02:47.179Z,1.04
2022-10-01T00:03:47.285Z,1.04
2022-10-01T00:04:47.378Z,1.04
2022-10-01T00:05:47.482Z,1.04
2022-10-01T00:06:47.647Z,1.04
2022-10-01T00:07:47.790Z,1.04
2022-10-01T00:08:47.933Z,1.04
2022-10-01T00:09:48.037Z,1.04
2022-10-01T00:10:48.190Z,1.04
2022-10-01T00:11:48.436Z,1.04
2022-10-01T00:12:48.505Z,1.04
2022-10-01T00:13:48.645Z,1.04
2022-10-01T00:14:48.751Z,1.04
2022-10-01T00:15:48.848Z,1.04
2022-10-01T00:16:49.107Z,1.04
2022-10-01T00:17:49.096Z,1.04
2022-10-01T00:18:49.248Z,1.04
2022-10-01T00:19:49.401Z,1.04
2022-10-01T00:20:49.505Z,1.04
2022-10-01T00:21:49.656Z,1.04
2022-10-01T00:22:49.759Z,1.04
2022-10-01T00:23:49.912Z,1.04
2022-10-01T00:24:50.031Z,1.04
2022-10-01T00:25:50.138Z,1.04
2022-10-01T00:26:50.271Z,1.04
2022-10-01T00:27:50.466Z,1.04
2022-10-01T00:28:50.501Z,1.04
2022-10-01T00:29:51.215Z,1.04
2022-10-01T00:30:50.821Z,1.04
2022-10-01T00:31:50.982Z,1.04
2022-10-01T00:32:51.070Z,1.04
2022-10-01T00:33:51.175Z,1.04
2022-10-01T00:34:51.277Z,1.04
2022-10-01T00:35:51.382Z,1.04
2022-10-01T00:36:51.484Z,1.04
2022-10-01T00:37:51.581Z,1.04
2022-10-01T00:38:51.737Z,1.04
2022-10-01T00:39:51.834Z,1.04
2022-10-01T00:40:51.947Z,1.04
2022-10-01T00:41:52.039Z,1.04
2022-10-01T00:42:52.193Z,1.04
2022-10-01T00:43:52.341Z,1.04
2022-10-01T00:44:52.504Z,1.04
2022-10-01T00:45:52.699Z,1.04
2022-10-01T00:46:52.798Z,1.04
2022-10-01T00:47:52.897Z,1.04
2022-10-01T00:48:53.052Z,1.04
2022-10-01T00:49:55.438Z,1.04
2022-10-01T00:50:53.253Z,1.04
2022-10-01T00:51:53.353Z,1.04
2022-10-01T00:52:53.457Z,1.04
2022-10-01T00:53:53.559Z,1.04
2022-10-01T00:54:53.656Z,1.04
2022-10-01T00:55:53.812Z,1.04
2022-10-01T00:56:53.917Z,1.04
2022-10-01T00:57:54.063Z,1.04
2022-10-01T00:58:54.241Z,1.04
2022-10-01T00:59:54.381Z,1.04
2022-10-01T01:00:54.574Z,1.04
2022-10-01T01:01:54.785Z,1.04
2022-10-01T01:02:54.774Z,1.04
2022-10-01T01:03:54.935Z,1.04
2022-10-01T01:04:55.083Z,1.04
2022-10-01T01:05:55.229Z,1.04
2022-10-01T01:06:55.333Z,1.04
2022-10-01T01:07:55.440Z,1.04
2022-10-01T01:08:55.535Z,1.04
2022-10-01T01:09:55.699Z,1.04
2022-10-01T01:10:55.789Z,1.04
2022-10-01T01:11:55.891Z,1.04
2022-10-01T01:12:55.995Z,1.04
2022-10-01T01:13:56.143Z,1.04
2022-10-01T01:14:56.308Z,1.04
2022-10-01T01:15:56.500Z,1.04
2022-10-01T01:16:56.545Z,1.04
2022-10-01T01:17:56.669Z,1.04
2022-10-01T01:18:56.760Z,1.04
2022-10-01T01:19:56.855Z,1.04
2022-10-01T01:20:56.962Z,1.04
2022-10-01T01:21:57.060Z,1.04
2022-10-01T01:22:57.161Z,1.04
2022-10-01T01:23:57.311Z,1.04
2022-10-01T01:24:57.422Z,1.04
2022-10-01T01:25:57.526Z,1.04
2022-10-01T01:26:57.619Z,1.04
2022-10-01T01:27:57.780Z,1.04
2022-10-01T01:28:57.819Z,1.04
2022-10-01T01:29:57.915Z,1.04
2022-10-01T01:30:58.121Z,1.04
2022-10-01T01:31:58.181Z,1.04
2022-10-01T01:32:58.298Z,1.04
2022-10-01T01:33:58.431Z,1.04
2022-10-01T01:34:58.584Z,1.04
2022-10-01T01:35:58.733Z,1.04
2022-10-01T01:36:58.832Z,1.04
2022-10-01T01:37:58.939Z,1.04
2022-10-01T01:38:59.040Z,1.04
2022-10-01T01:39:59.195Z,1.04
2022-10-01T01:40:59.347Z,1.04
2022-10-01T01:41:59.499Z,1.04
2022-10-01T01:42:59.637Z,1.04
2022-10-01T01:43:59.800Z,1.04
2022-10-01T01:44:59.904Z,1.04
2022-10-01T01:46:00.111Z,1.04
2022-10-01T01:47:00.162Z,1.04
2022-10-01T01:48:00.298Z,1.04
2022-10-01T01:49:00.402Z,1.04
2022-10-01T01:50:00.558Z,1.04
2022-10-01T01:51:00.707Z,1.04
2022-10-01T01:52:00.806Z,1.04
2022-10-01T01:53:00.912Z,1.04
2022-10-01T01:54:01.011Z,1.04
2022-10-01T01:55:01.114Z,1.04
2022-10-01T01:56:01.215Z,1.04
2022-10-01T01:57:01.342Z,1.04
2022-10-01T01:58:01.467Z,1.04
2022-10-01T01:59:01.619Z,1.04
2022-10-01T02:00:01.779Z,1.04
2022-10-01T02:01:01.928Z,1.04
2022-10-01T02:02:02.168Z,1.04
2022-10-01T02:03:02.278Z,1.04
2022-10-01T02:04:02.340Z,1.04
2022-10-01T02:05:02.480Z,1.04
2022-10-01T02:06:02.584Z,1.04
2022-10-01T02:07:02.687Z,1.04
2022-10-01T02:08:02.835Z,1.04
2022-10-01T02:09:02.957Z,1.04
2022-10-01T02:10:03.088Z,1.04
2022-10-01T02:11:03.241Z,1.04
2022-10-01T02:12:03.346Z,1.04
2022-10-01T02:13:03.490Z,1.04
2022-10-01T02:14:03.595Z,1.04
2022-10-01T02:15:03.698Z,1.04
2022-10-01T02:16:03.921Z,1.04
2022-10-01T02:17:03.954Z,1.04
2022-10-01T02:18:04.051Z,1.04
2022-10-01T02:19:04.209Z,1.04
2022-10-01T02:20:04.325Z,1.04
2022-10-01T02:21:04.459Z,1.04
2022-10-01T02:22:04.571Z,1.04
2022-10-01T02:23:04.662Z,1.04
2022-10-01T02:24:04.773Z,1.04
2022-10-01T02:25:04.871Z,1.04
2022-10-01T02:26:04.971Z,1.04
2022-10-01T02:27:05.079Z,1.04
2022-10-01T02:28:05.286Z,1.04
2022-10-01T02:29:05.319Z,1.04
2022-10-01T02:30:05.426Z,1.04
2022-10-01T02:31:05.672Z,1.04
2022-10-01T02:32:05.727Z,1.04
2022-10-01T02:33:05.881Z,1.04
2022-10-01T02:34:07.614Z,1.04
2022-10-01T02:35:06.101Z,1.04
2022-10-01T02:36:06.246Z,1.04
2022-10-01T02:37:06.335Z,1.04
2022-10-01T02:38:06.438Z,1.04
2022-10-01T02:39:06.584Z,1.04
2022-10-01T02:40:06.701Z,1.04
2022-10-01T02:41:06.795Z,1.04
2022-10-01T02:42:06.940Z,1.04
2022-10-01T02:43:07.065Z,1.04
2022-10-01T02:44:07.205Z,1.04
2022-10-01T02:45:07.358Z,1.04
2022-10-01T02:46:07.576Z,1.04
2022-10-01T02:47:07.626Z,1.04
2022-10-01T02:48:07.756Z,1.04
2022-10-01T02:49:07.901Z,1.04
2022-10-01T02:50:08.003Z,1.04
2022-10-01T02:51:08.108Z,1.04
2022-10-01T02:52:08.224Z,1.04
2022-10-01T02:53:08.313Z,1.04
2022-10-01T02:54:08.413Z,1.04
2022-10-01T02:55:08.517Z,1.04
2022-10-01T02:56:08.619Z,1.04
2022-10-01T02:57:08.726Z,1.04
2022-10-01T02:58:08.866Z,1.04
2022-10-01T02:59:08.969Z,1.04
2022-10-01T03:00:09.072Z,1.04
2022-10-01T03:01:09.291Z,1.04
2022-10-01T03:02:09.500Z,1.04
2022-10-01T03:03:09.427Z,1.04
2022-10-01T03:04:09.594Z,1.04
2022-10-01T03:05:09.743Z,1.04
2022-10-01T03:06:09.890Z,1.04
2022-10-01T03:07:09.989Z,1.04
2022-10-01T03:08:10.083Z,1.04
2022-10-01T03:09:10.189Z,1.04
2022-10-01T03:10:10.336Z,1.04
2022-10-01T03:11:10.488Z,1.04
2022-10-01T03:12:10.654Z,1.04
2022-10-01T03:13:10.752Z,1.04
2022-10-01T03:14:10.897Z,1.04
2022-10-01T03:15:10.998Z,1.04
2022-10-01T03:16:11.174Z,1.04
2022-10-01T03:17:11.247Z,1.04
2022-10-01T03:18:11.403Z,1.04
2022-10-01T03:19:11.505Z,1.04
2022-10-01T03:20:11.664Z,1.04
2022-10-01T03:21:11.793Z,1.04
2022-10-01T03:22:11.977Z,1.04
2022-10-01T03:23:12.117Z,1.04
2022-10-01T03:24:12.225Z,1.04
2022-10-01T03:25:12.376Z,1.04
2022-10-01T03:26:12.513Z,1.04
2022-10-01T03:27:12.629Z,1.04
2022-10-01T03:28:12.844Z,1.04
2022-10-01T03:29:12.924Z,1.04
2022-10-01T03:30:13.072Z,1.04
2022-10-01T03:31:13.226Z,1.04
2022-10-01T03:32:13.378Z,1.04
2022-10-01T03:33:13.477Z,1.04
2022-10-01T03:34:13.577Z,1.04
2022-10-01T03:35:13.672Z,1.04
2022-10-01T03:36:13.858Z,1.04
2022-10-01T03:37:13.979Z,1.04
2022-10-01T03:38:14.168Z,1.04
2022-10-01T03:39:14.295Z,1.04
2022-10-01T03:40:14.441Z,1.04
2022-10-01T03:41:14.619Z,1.04
2022-10-01T03:42:14.754Z,1.04
2022-10-01T03:43:14.844Z,1.04
2022-10-01T03:44:14.948Z,1.04
2022-10-01T03:45:15.049Z,1.04
2022-10-01T03:46:15.247Z,1.04
2022-10-01T03:47:15.304Z,1.04
2022-10-01T03:48:15.403Z,1.04
2022-10-01T03:49:15.508Z,1.04
2022-10-01T03:50:15.604Z,1.04
2022-10-01T03:51:19.728Z,1.04
2022-10-01T03:52:15.868Z,1.04
2022-10-01T03:53:16.012Z,1.04
2022-10-01T03:54:16.131Z,1.04
2022-10-01T03:55:16.221Z,1.04
2022-10-01T03:56:16.315Z,1.04
2022-10-01T03:57:16.426Z,1.04
2022-10-01T03:58:16.540Z,1.04
2022-10-01T03:59:16.693Z,1.04
2022-10-01T04:00:16.776Z,1.04
2022-10-01T04:01:16.985Z,1.04
2022-10-01T04:02:17.232Z,1.04
2022-10-01T04:03:17.200Z,1.04
2022-10-01T04:04:17.326Z,1.04
2022-10-01T04:05:17.431Z,1.04
2022-10-01T04:06:17.534Z,1.04
2022-10-01T04:07:17.639Z,1.04
2022-10-01T04:08:20.849Z,1.04
2022-10-01T04:09:17.886Z,1.04
2022-10-01T04:10:18.046Z,1.04
2022-10-01T04:11:18.142Z,1.04
2022-10-01T04:12:18.242Z,1.04
2022-10-01T04:13:18.346Z,1.04
2022-10-01T04:14:18.456Z,1.04
2022-10-01T04:15:18.604Z,1.04
2022-10-01T04:16:18.799Z,1.04
2022-10-01T04:17:18.803Z,1.04
2022-10-01T04:18:18.912Z,1.04
2022-10-01T04:19:19.015Z,1.04
2022-10-01T04:20:19.115Z,1.04
2022-10-01T04:21:19.272Z,1.04
2022-10-01T04:22:19.416Z,1.04
2022-10-01T04:23:19.523Z,1.04
2022-10-01T04:24:19.675Z,1.04
2022-10-01T04:25:19.822Z,1.04
2022-10-01T04:26:19.983Z,1.04
2022-10-01T04:27:20.073Z,1.04
2022-10-01T04:28:20.326Z,1.04
2022-10-01T04:29:20.326Z,1.04
2022-10-01T04:30:20.429Z,1.04
2022-10-01T04:31:20.648Z,2
2022-10-01T04:32:20.678Z,2
2022-10-01T04:33:20.781Z,2
2022-10-01T04:34:20.890Z,2
2022-10-01T04:35:20.982Z,2
2022-10-01T04:36:21.089Z,3.04
2022-10-01T04:37:21.191Z,3.04
2022-10-01T04:38:21.295Z,3.04
2022-10-01T04:39:21.393Z,4
2022-10-01T04:40:21.547Z,5.04
2022-10-01T04:41:21.705Z,6
2022-10-01T04:42:21.799Z,7.04
2022-10-01T04:43:21.950Z,8
2022-10-01T04:44:22.106Z,10
2022-10-01T04:45:22.210Z,11.04
2022-10-01T04:46:22.494Z,14
2022-10-01T04:47:22.455Z,16
2022-10-01T04:48:22.555Z,20
2022-10-01T04:49:22.705Z,23.04
2022-10-01T04:50:22.808Z,27.04
2022-10-01T04:51:22.915Z,30
2022-10-01T04:52:23.019Z,33.04
2022-10-01T04:53:23.164Z,35.04
2022-10-01T04:54:23.313Z,43.04
2022-10-01T04:55:23.441Z,54
2022-10-01T04:56:23.560Z,73.04
2022-10-01T04:57:23.626Z,92
2022-10-01T04:58:23.720Z,118
2022-10-01T04:59:23.876Z,135.04
2022-10-01T05:00:23.980Z,154
2022-10-01T05:01:24.191Z,172
2022-10-01T05:02:24.289Z,187.04
2022-10-01T05:03:24.335Z,212
2022-10-01T05:04:24.485Z,232
2022-10-01T05:05:24.600Z,249.12
2022-10-01T05:06:24.706Z,269.12
2022-10-01T05:07:24.793Z,315.04
2022-10-01T05:08:24.939Z,350.08
2022-10-01T05:09:25.090Z,383.04
2022-10-01T05:10:25.250Z,427.2
2022-10-01T05:11:25.353Z,462.08
2022-10-01T05:12:25.445Z,510.08
2022-10-01T05:13:25.571Z,552
2022-10-01T05:14:25.692Z,603.2
2022-10-01T05:15:25.851Z,641.28
2022-10-01T05:16:26.002Z,676.48
2022-10-01T05:17:26.100Z,719.36
2022-10-01T05:18:26.331Z,763.52
2022-10-01T05:19:28.111Z,809.6
2022-10-01T05:20:26.517Z,858.24
2022-10-01T05:21:26.660Z,896
2022-10-01T05:22:26.809Z,948.48
2022-10-01T05:23:26.974Z,990.08
2022-10-01T05:24:27.126Z,1016.32
2022-10-01T05:25:27.224Z,1027.2
2022-10-01T05:26:27.323Z,1019.52
2022-10-01T05:27:27.421Z,1008
2022-10-01T05:28:27.693Z,1010.56
2022-10-01T05:29:27.723Z,1053.44
2022-10-01T05:30:27.826Z,1115.52
2022-10-01T05:31:28.113Z,1197.44
2022-10-01T05:32:28.083Z,1253.12
2022-10-01T05:33:28.181Z,1347.84
2022-10-01T05:34:28.336Z,1401.6
2022-10-01T05:35:28.444Z,1390.08
2022-10-01T05:36:28.539Z,1399.04
2022-10-01T05:37:28.657Z,1423.36
2022-10-01T05:38:28.801Z,1436.16
2022-10-01T05:39:28.900Z,1454.08
2022-10-01T05:40:29.009Z,1468.16
2022-10-01T05:41:29.104Z,1489.92
2022-10-01T05:42:29.198Z,1524.48
2022-10-01T05:43:29.304Z,1559.04
2022-10-01T05:44:29.453Z,1632
2022-10-01T05:45:29.686Z,1706.24
2022-10-01T05:46:29.720Z,1817.6
2022-10-01T05:47:29.806Z,1926.4
2022-10-01T05:48:29.916Z,2082.56
2022-10-01T05:49:30.081Z,2218.24
2022-10-01T05:50:30.211Z,2369.28
2022-10-01T05:51:30.316Z,2551.04
2022-10-01T05:52:30.413Z,2688
2022-10-01T05:53:30.522Z,2859.52
2022-10-01T05:54:30.619Z,3000.32
2022-10-01T05:55:30.768Z,3166.72
2022-10-01T05:56:30.874Z,3287.04
2022-10-01T05:57:30.977Z,3430.4
2022-10-01T05:58:31.073Z,3527.68
2022-10-01T05:59:32.098Z,3658.24
2022-10-01T06:00:31.284Z,3765.76
2022-10-01T06:01:31.662Z,3880.96
2022-10-01T06:02:31.656Z,4037.12
2022-10-01T06:03:31.680Z,4185.6
2022-10-01T06:04:31.832Z,4372.48
2022-10-01T06:05:31.990Z,4528.64
2022-10-01T06:06:32.094Z,4733.44
2022-10-01T06:07:32.261Z,4889.6
2022-10-01T06:08:32.346Z,5079.04
2022-10-01T06:09:32.449Z,5204.48
2022-10-01T06:10:32.592Z,5340.16
2022-10-01T06:11:32.990Z,5422.08
2022-10-01T06:12:32.795Z,5452.8
2022-10-01T06:13:32.900Z,5427.2
2022-10-01T06:14:33.053Z,5350.4
2022-10-01T06:15:33.153Z,5219.84
2022-10-01T06:16:33.344Z,5045.76
2022-10-01T06:17:33.463Z,4902.4
2022-10-01T06:18:33.609Z,4761.6
2022-10-01T06:19:33.769Z,4689.92
2022-10-01T06:20:33.916Z,4669.44
2022-10-01T06:21:34.313Z,4736
2022-10-01T06:22:34.169Z,4864
2022-10-01T06:23:34.268Z,5130.24
2022-10-01T06:24:34.370Z,5427.2
2022-10-01T06:25:34.524Z,5985.28
2022-10-01T06:26:34.681Z,6584.32
2022-10-01T06:27:34.825Z,6917.12
2022-10-01T06:28:34.972Z,7121.92
2022-10-01T06:29:35.126Z,7495.68
2022-10-01T06:30:35.232Z,7884.8
2022-10-01T06:31:35.649Z,8222.72
2022-10-01T06:32:35.543Z,8514.56
2022-10-01T06:33:35.687Z,8683.52
2022-10-01T06:34:35.786Z,8760.319
2022-10-01T06:35:35.892Z,8734.72
2022-10-01T06:36:36.042Z,8581.12
2022-10-01T06:37:36.147Z,8376.32
2022-10-01T06:38:36.248Z,8069.12
2022-10-01T06:39:36.347Z,7828.48
2022-10-01T06:40:36.500Z,7608.32
2022-10-01T06:41:36.935Z,7521.28
2022-10-01T06:42:36.770Z,7552
2022-10-01T06:43:36.908Z,7715.84
2022-10-01T06:44:37.011Z,8089.6
2022-10-01T06:45:37.236Z,8596.479
2022-10-01T06:46:37.306Z,9195.52
2022-10-01T06:47:37.410Z,10199.04
2022-10-01T06:48:37.517Z,10844.16
2022-10-01T06:49:37.610Z,11438.08
2022-10-01T06:50:37.713Z,11898.88
2022-10-01T06:51:37.866Z,12288
2022-10-01T06:52:37.966Z,12328.96
2022-10-01T06:53:38.115Z,12513.279
2022-10-01T06:54:38.267Z,13608.96
2022-10-01T06:55:38.386Z,13854.72
2022-10-01T06:56:38.525Z,12492.8
2022-10-01T06:57:38.633Z,11663.359
2022-10-01T06:58:38.778Z,11171.84
2022-10-01T06:59:38.928Z,10844.16
2022-10-01T07:00:39.246Z,11704.319
2022-10-01T07:01:39.478Z,12666.88
2022-10-01T07:02:39.529Z,10485.76
2022-10-01T07:03:39.499Z,10506.24
2022-10-01T07:04:40.096Z,15165.439
2022-10-01T07:05:39.771Z,10163.2
2022-10-01T07:06:40.425Z,9625.6
2022-10-01T07:07:40.103Z,9226.24
2022-10-01T07:08:40.715Z,9886.72
2022-10-01T07:09:40.400Z,16261.12
2022-10-01T07:10:40.943Z,13967.359
2022-10-01T07:11:40.668Z,10060.8
2022-10-01T07:12:41.216Z,9472
2022-10-01T07:13:40.909Z,9861.12
2022-10-01T07:14:41.067Z,10255.359
2022-10-01T07:15:41.170Z,10741.76
2022-10-01T07:16:41.438Z,11141.12
2022-10-01T07:17:41.407Z,11622.399
2022-10-01T07:18:41.557Z,11960.319
2022-10-01T07:19:41.662Z,12421.12
2022-10-01T07:20:41.776Z,12769.279
2022-10-01T07:21:41.923Z,14653.439
2022-10-01T07:22:42.025Z,14899.199
2022-10-01T07:23:42.119Z,17090.56
2022-10-01T07:24:42.220Z,16588.8
2022-10-01T07:25:42.321Z,15319.04
2022-10-01T07:26:42.430Z,15226.88
2022-10-01T07:27:42.578Z,15257.6
2022-10-01T07:28:42.732Z,15032.319
2022-10-01T07:29:42.845Z,15288.319
2022-10-01T07:30:42.984Z,16209.92
2022-10-01T07:31:43.136Z,16936.96
2022-10-01T07:32:43.199Z,17500.16
2022-10-01T07:33:43.331Z,14510.08
2022-10-01T07:34:43.444Z,12574.72
2022-10-01T07:35:43.602Z,12851.2
2022-10-01T07:36:43.689Z,13322.239
2022-10-01T07:37:43.846Z,12707.84
2022-10-01T07:38:43.996Z,12124.16
2022-10-01T07:39:44.098Z,11458.56
2022-10-01T07:40:44.200Z,11141.12
2022-10-01T07:41:44.356Z,10782.72
2022-10-01T07:42:44.503Z,10874.88
2022-10-01T07:43:44.611Z,10316.8
2022-10-01T07:44:44.720Z,9175.04
2022-10-01T07:45:44.900Z,8632.319
2022-10-01T07:46:44.959Z,8058.88
2022-10-01T07:47:45.061Z,7628.8
2022-10-01T07:48:45.211Z,7464.96
2022-10-01T07:49:45.359Z,7982.08
2022-10-01T07:50:45.511Z,7434.24
2022-10-01T07:51:45.666Z,6958.08
2022-10-01T07:52:45.824Z,6860.8
2022-10-01T07:53:45.920Z,6824.96
2022-10-01T07:54:46.070Z,6819.84
2022-10-01T07:55:46.187Z,6850.56
2022-10-01T07:56:46.335Z,6947.84
2022-10-01T07:57:46.425Z,7029.76
2022-10-01T07:58:46.581Z,7168
2022-10-01T07:59:46.687Z,7280.64
2022-10-01T08:00:46.894Z,7464.96
2022-10-01T08:01:47.044Z,7592.96
2022-10-01T08:02:47.039Z,7736.32
2022-10-01T08:03:47.140Z,7915.52
2022-10-01T08:04:47.241Z,8069.12
2022-10-01T08:05:47.348Z,8227.84
2022-10-01T08:06:47.450Z,8350.72
2022-10-01T08:07:47.553Z,8468.479
2022-10-01T08:08:47.692Z,8519.68
2022-10-01T08:09:47.800Z,8529.92
2022-10-01T08:10:47.895Z,8468.479
2022-10-01T08:11:48.051Z,8289.28
2022-10-01T08:12:48.213Z,8038.4
2022-10-01T08:13:48.305Z,7685.12
2022-10-01T08:14:48.467Z,7142.4
2022-10-01T08:15:48.570Z,6753.28
2022-10-01T08:16:48.711Z,6502.4
2022-10-01T08:17:48.807Z,6487.04
2022-10-01T08:18:48.909Z,6533.12
2022-10-01T08:19:49.060Z,6574.08
2022-10-01T08:20:49.166Z,6661.12
2022-10-01T08:21:49.324Z,6789.12
2022-10-01T08:22:49.422Z,6988.8
2022-10-01T08:23:49.524Z,7219.2
2022-10-01T08:24:49.622Z,7444.48
2022-10-01T08:25:49.722Z,7685.12
2022-10-01T08:26:49.824Z,7910.4
2022-10-01T08:27:50.066Z,8263.68
2022-10-01T08:28:50.082Z,8529.92
2022-10-01T08:29:50.192Z,8883.2
2022-10-01T08:30:50.330Z,9098.24
2022-10-01T08:31:50.536Z,9216
2022-10-01T08:32:50.544Z,9303.04
2022-10-01T08:33:50.685Z,9308.16
2022-10-01T08:34:54.553Z,9164.8
2022-10-01T08:35:50.895Z,9021.439
2022-10-01T08:36:50.997Z,9082.88
2022-10-01T08:37:51.092Z,9272.319
2022-10-01T08:38:51.194Z,9733.12
2022-10-01T08:39:51.344Z,10147.84
2022-10-01T08:40:51.468Z,10772.479
2022-10-01T08:41:51.600Z,11345.92
2022-10-01T08:42:51.754Z,11714.56
2022-10-01T08:43:51.916Z,11827.2
2022-10-01T08:44:52.053Z,11837.439
2022-10-01T08:45:52.196Z,11816.96
2022-10-01T08:46:52.312Z,11796.479
2022-10-01T08:47:52.460Z,11735.04
2022-10-01T08:48:56.800Z,11663.359
2022-10-01T08:49:52.665Z,11581.439
2022-10-01T08:50:52.774Z,11397.12
2022-10-01T08:51:52.868Z,11315.2
2022-10-01T08:52:52.968Z,11704.319
2022-10-01T08:53:53.077Z,12165.12
2022-10-01T08:54:53.223Z,12380.16
2022-10-01T08:55:53.350Z,12687.359
2022-10-01T08:56:53.481Z,14172.16
2022-10-01T08:57:53.630Z,15042.56
2022-10-01T08:58:53.782Z,15554.56
2022-10-01T08:59:53.898Z,15810.56
2022-10-01T09:00:54.120Z,15503.359
2022-10-01T09:01:54.189Z,14469.12
2022-10-01T09:02:54.346Z,13629.439
2022-10-01T09:03:54.503Z,13312
2022-10-01T09:04:57.820Z,13701.12
2022-10-01T09:05:54.795Z,14325.76
2022-10-01T09:06:54.938Z,14755.84
2022-10-01T09:07:55.042Z,15032.319
2022-10-01T09:08:55.207Z,15319.04
2022-10-01T09:09:55.294Z,15575.04
2022-10-01T09:10:55.388Z,15554.56
2022-10-01T09:11:55.561Z,15267.84
2022-10-01T09:12:55.639Z,14919.68
2022-10-01T09:13:55.893Z,14479.359
2022-10-01T09:14:55.956Z,13578.239
2022-10-01T09:15:56.045Z,12830.72
2022-10-01T09:16:56.236Z,12206.08
2022-10-01T09:17:56.346Z,12124.16
2022-10-01T09:18:57.246Z,12288
2022-10-01T09:19:56.673Z,12441.6
2022-10-01T09:20:56.826Z,12523.52
2022-10-01T09:21:56.938Z,12318.72
2022-10-01T09:22:57.023Z,11581.439
2022-10-01T09:23:57.125Z,11182.08
2022-10-01T09:24:57.226Z,10813.439
2022-10-01T09:25:57.333Z,10045.439
2022-10-01T09:26:57.434Z,9466.88
2022-10-01T09:27:57.619Z,9364.479
2022-10-01T09:28:57.666Z,9702.399
2022-10-01T09:29:58.526Z,10040.319
2022-10-01T09:30:57.984Z,10193.92
2022-10-01T09:31:58.267Z,10393.6
2022-10-01T09:32:58.247Z,10915.84
2022-10-01T09:33:58.383Z,11233.279
2022-10-01T09:35:02.131Z,11376.64
2022-10-01T09:35:58.638Z,11356.16
2022-10-01T09:36:58.743Z,11366.399
2022-10-01T09:37:58.844Z,11284.479
2022-10-01T09:38:58.994Z,11417.6
2022-10-01T09:39:59.096Z,11530.239
2022-10-01T09:40:59.220Z,11386.88
2022-10-01T09:41:59.354Z,11130.88
2022-10-01T09:42:59.457Z,10977.279
2022-10-01T09:43:59.560Z,11069.439
2022-10-01T09:44:59.655Z,11233.279
2022-10-01T09:45:59.871Z,11479.04
2022-10-01T09:46:59.902Z,11663.359
2022-10-01T09:48:00.147Z,11827.2
2022-10-01T09:49:00.164Z,11786.239
2022-10-01T09:50:00.328Z,11776
2022-10-01T09:51:00.476Z,11776
2022-10-01T09:52:00.579Z,12052.479
2022-10-01T09:53:00.696Z,12195.84
2022-10-01T09:54:00.830Z,12103.68
2022-10-01T09:55:00.974Z,12021.76
2022-10-01T09:56:01.081Z,11663.359
2022-10-01T09:57:01.236Z,11059.2
2022-10-01T09:58:01.381Z,10608.64
2022-10-01T09:59:01.532Z,10214.399
2022-10-01T10:00:01.695Z,10035.2
2022-10-01T10:01:01.843Z,10060.8
2022-10-01T10:02:02.134Z,10065.92
2022-10-01T10:03:02.225Z,9999.359
2022-10-01T10:04:02.192Z,9671.68
2022-10-01T10:05:02.353Z,9518.08
2022-10-01T10:06:02.511Z,9344
2022-10-01T10:07:02.645Z,9103.359
2022-10-01T10:08:02.748Z,8872.96
2022-10-01T10:09:02.850Z,8499.2
2022-10-01T10:10:02.955Z,8186.88
2022-10-01T10:11:03.058Z,7936
2022-10-01T10:12:03.210Z,7403.52
2022-10-01T10:13:03.354Z,7009.28
2022-10-01T10:14:03.467Z,6993.92
2022-10-01T10:15:03.608Z,6860.8
2022-10-01T10:16:03.782Z,6835.2
2022-10-01T10:17:03.910Z,6968.32
2022-10-01T10:18:04.066Z,7075.84
2022-10-01T10:19:04.176Z,7265.28
2022-10-01T10:20:04.285Z,7439.36
2022-10-01T10:21:04.368Z,7731.2
2022-10-01T10:22:04.536Z,8007.68
2022-10-01T10:23:04.660Z,8186.88
2022-10-01T10:24:04.795Z,8371.2
2022-10-01T10:25:04.972Z,8596.479
2022-10-01T10:26:05.017Z,8724.479
2022-10-01T10:27:05.159Z,8919.04
2022-10-01T10:28:05.329Z,8949.76
2022-10-01T10:29:05.376Z,8995.84
2022-10-01T10:30:05.541Z,8924.16
2022-10-01T10:31:05.714Z,8816.64
2022-10-01T10:32:05.844Z,8586.24
2022-10-01T10:33:05.943Z,8412.16
2022-10-01T10:34:06.039Z,8099.84
2022-10-01T10:35:06.140Z,7936
2022-10-01T10:36:06.289Z,7741.44
2022-10-01T10:37:06.398Z,7495.68
2022-10-01T10:38:06.513Z,7403.52
2022-10-01T10:39:06.654Z,7480.32
2022-10-01T10:40:06.806Z,7388.16
2022-10-01T10:41:06.976Z,7290.88
2022-10-01T10:42:07.069Z,7249.92
2022-10-01T10:43:07.155Z,7178.24
2022-10-01T10:44:07.314Z,7137.28
2022-10-01T10:45:07.412Z,7183.36
2022-10-01T10:46:07.571Z,7321.6
2022-10-01T10:47:07.660Z,7500.8
2022-10-01T10:48:07.769Z,7695.36
2022-10-01T10:49:07.869Z,7941.12
2022-10-01T10:50:08.043Z,8099.84
2022-10-01T10:51:08.130Z,8176.64
2022-10-01T10:52:08.224Z,8181.76
2022-10-01T10:53:08.372Z,8089.6
2022-10-01T10:54:08.481Z,7951.36
2022-10-01T10:55:08.853Z,7823.36
2022-10-01T10:56:08.735Z,7777.28
2022-10-01T10:57:08.833Z,7731.2
2022-10-01T10:58:08.927Z,7720.96
2022-10-01T10:59:09.094Z,7828.48
2022-10-01T11:00:09.199Z,7936
2022-10-01T11:01:09.403Z,8084.48
2022-10-01T11:02:09.546Z,8181.76
2022-10-01T11:03:09.591Z,8145.92
2022-10-01T11:04:09.687Z,8253.44
2022-10-01T11:05:09.840Z,8448
2022-10-01T11:06:09.951Z,8371.2
2022-10-01T11:07:10.045Z,8468.479
2022-10-01T11:08:13.008Z,8432.64
2022-10-01T11:09:10.347Z,8494.08
2022-10-01T11:10:10.459Z,8545.28
2022-10-01T11:11:10.610Z,8632.319
2022-10-01T11:12:10.751Z,8765.439
2022-10-01T11:13:10.857Z,8960
2022-10-01T11:14:10.954Z,9036.8
2022-10-01T11:15:11.056Z,9103.359
2022-10-01T11:16:11.255Z,9164.8
2022-10-01T11:17:11.407Z,9333.76
2022-10-01T11:18:11.514Z,9528.319
2022-10-01T11:19:11.685Z,9676.8
2022-10-01T11:20:11.907Z,9635.84
2022-10-01T11:21:11.970Z,9405.439
2022-10-01T11:22:12.073Z,8939.52
2022-10-01T11:23:12.179Z,8642.56
2022-10-01T11:24:12.289Z,8724.479
2022-10-01T11:25:12.373Z,8642.56
2022-10-01T11:26:12.523Z,8422.399
2022-10-01T11:27:12.682Z,8340.48
2022-10-01T11:28:12.877Z,8401.92
2022-10-01T11:29:12.932Z,8596.479
2022-10-01T11:30:13.060Z,8832
2022-10-01T11:31:13.256Z,9118.72
2022-10-01T11:32:13.345Z,8719.359
2022-10-01T11:33:13.501Z,9282.56
2022-10-01T11:34:13.589Z,9369.6
2022-10-01T11:35:13.701Z,9267.2
2022-10-01T11:36:13.850Z,8970.24
2022-10-01T11:37:13.998Z,8340.48
2022-10-01T11:38:14.150Z,8488.96
2022-10-01T11:39:14.259Z,8642.56
2022-10-01T11:40:14.357Z,9154.56
2022-10-01T11:41:14.502Z,9907.2
2022-10-01T11:42:14.662Z,10465.279
2022-10-01T11:43:14.810Z,10721.279
2022-10-01T11:44:14.913Z,10874.88
2022-10-01T11:45:15.058Z,11182.08
2022-10-01T11:46:15.261Z,11386.88
2022-10-01T11:47:15.316Z,11376.64
2022-10-01T11:48:15.415Z,11284.479
2022-10-01T11:49:15.519Z,11059.2
2022-10-01T11:50:15.620Z,11520
2022-10-01T11:51:15.769Z,11878.399
2022-10-01T11:52:15.918Z,11980.8
2022-10-01T11:53:16.027Z,11950.08
2022-10-01T11:54:16.129Z,11878.399
2022-10-01T11:55:16.235Z,11755.52
2022-10-01T11:56:16.345Z,11612.16
2022-10-01T11:57:16.434Z,11571.2
2022-10-01T11:58:16.592Z,11489.279
2022-10-01T11:59:16.743Z,11427.84
2022-10-01T12:00:16.851Z,11417.6
2022-10-01T12:01:16.992Z,11315.2
2022-10-01T12:02:17.123Z,11192.319
2022-10-01T12:03:17.192Z,11253.76
2022-10-01T12:04:17.299Z,11356.16
2022-10-01T12:05:17.507Z,11243.52
2022-10-01T12:06:19.277Z,11161.6
2022-10-01T12:07:17.647Z,10946.56
2022-10-01T12:08:17.753Z,10639.359
2022-10-01T12:09:17.857Z,10127.359
2022-10-01T12:10:18.033Z,9774.08
2022-10-01T12:11:18.115Z,9518.08
2022-10-01T12:12:18.284Z,9497.6
2022-10-01T12:13:18.358Z,9543.68
2022-10-01T12:14:18.463Z,9661.439
2022-10-01T12:15:18.574Z,9728
2022-10-01T12:16:18.735Z,9809.92
2022-10-01T12:17:18.776Z,9876.479
2022-10-01T12:18:18.867Z,9830.399
2022-10-01T12:19:18.963Z,9579.52
2022-10-01T12:20:19.129Z,9093.12
2022-10-01T12:21:19.275Z,8663.04
2022-10-01T12:22:22.402Z,8207.36
2022-10-01T12:23:19.528Z,8033.28
2022-10-01T12:24:19.626Z,7951.36
2022-10-01T12:25:19.751Z,7808
2022-10-01T12:26:19.875Z,7572.48
2022-10-01T12:27:19.986Z,7224.32
2022-10-01T12:28:20.113Z,6968.32
2022-10-01T12:29:20.184Z,6717.44
2022-10-01T12:30:20.339Z,6568.96
2022-10-01T12:31:20.479Z,6522.88
2022-10-01T12:32:20.587Z,6563.84
2022-10-01T12:33:20.699Z,6681.6
2022-10-01T12:34:20.795Z,6824.96